sensor_id;sensor_type;location;lat;lon;timestamp;P1;durP1;ratioP1;P2;durP2;ratioP2
15006;SDS011;7599;50.748;13.142;2023-03-14T00:00:27;1.95;;;0.73;;
15006;SDS011;7599;50.748;13.142;2023-03-14T00:03:31;3.38;;;2.70;;
15006;SDS011;7599;50.748;13.142;2023-03-14T00:06:34;2.80;;;2.47;;
15006;SDS011;7599;50.748;13.142;2023-03-14T00:15:42;2.55;;;2.22;;
15006;SDS011;7599;50.748;13.142;2023-03-14T00:18:46;3.80;;;2.45;;
15006;SDS011;7599;50.748;13.142;2023-03-14T00:21:49;2.55;;;2.08;;
15006;SDS011;7599;50.748;13.142;2023-03-14T00:24:52;3.35;;;2.33;;
15006;SDS011;7599;50.748;13.142;2023-03-14T00:27:54;2.47;;;0.88;;
15006;SDS011;7599;50.748;13.142;2023-03-14T00:30:57;3.03;;;2.50;;
15006;SDS011;7599;50.748;13.142;2023-03-14T00:34:01;2.50;;;1.92;;
15006;SDS011;7599;50.748;13.142;2023-03-14T00:37:06;2.72;;;2.38;;
15006;SDS011;7599;50.748;13.142;2023-03-14T00:40:09;2.65;;;2.05;;
15006;SDS011;7599;50.748;13.142;2023-03-14T00:43:12;3.00;;;2.50;;
15006;SDS011;7599;50.748;13.142;2023-03-14T00:46:15;2.50;;;2.03;;
15006;SDS011;7599;50.748;13.142;2023-03-14T00:49:19;3.45;;;2.53;;
15006;SDS011;7599;50.748;13.142;2023-03-14T00:52:22;3.80;;;2.97;;
15006;SDS011;7599;50.748;13.142;2023-03-14T00:55:25;2.38;;;2.17;;
15006;SDS011;7599;50.748;13.142;2023-03-14T00:58:27;3.03;;;2.38;;
15006;SDS011;7599;50.748;13.142;2023-03-14T01:01:30;2.75;;;2.30;;
15006;SDS011;7599;50.748;13.142;2023-03-14T01:04:34;1.05;;;0.80;;
15006;SDS011;7599;50.748;13.142;2023-03-14T01:07:38;2.85;;;2.35;;
15006;SDS011;7599;50.748;13.142;2023-03-14T01:10:41;3.00;;;2.45;;
15006;SDS011;7599;50.748;13.142;2023-03-14T01:13:45;2.33;;;1.70;;
15006;SDS011;7599;50.748;13.142;2023-03-14T01:16:47;2.97;;;2.10;;
15006;SDS011;7599;50.748;13.142;2023-03-14T01:19:51;3.42;;;2.95;;
15006;SDS011;7599;50.748;13.142;2023-03-14T01:22:54;2.50;;;1.95;;
15006;SDS011;7599;50.748;13.142;2023-03-14T01:25:57;3.08;;;2.78;;
15006;SDS011;7599;50.748;13.142;2023-03-14T01:28:59;2.60;;;2.03;;
15006;SDS011;7599;50.748;13.142;2023-03-14T01:32:02;2.15;;;1.83;;
15006;SDS011;7599;50.748;13.142;2023-03-14T01:35:07;2.65;;;2.22;;
15006;SDS011;7599;50.748;13.142;2023-03-14T01:38:10;2.83;;;2.55;;
15006;SDS011;7599;50.748;13.142;2023-03-14T01:41:13;3.03;;;2.45;;
15006;SDS011;7599;50.748;13.142;2023-03-14T01:44:17;3.78;;;2.63;;
15006;SDS011;7599;50.748;13.142;2023-03-14T01:47:20;3.53;;;2.58;;
15006;SDS011;7599;50.748;13.142;2023-03-14T01:50:24;2.75;;;2.35;;
15006;SDS011;7599;50.748;13.142;2023-03-14T01:53:27;2.20;;;2.00;;
15006;SDS011;7599;50.748;13.142;2023-03-14T01:56:31;2.80;;;2.53;;
15006;SDS011;7599;50.748;13.142;2023-03-14T01:59:34;2.78;;;2.47;;
15006;SDS011;7599;50.748;13.142;2023-03-14T02:02:39;3.30;;;2.63;;
15006;SDS011;7599;50.748;13.142;2023-03-14T02:05:45;2.92;;;2.47;;
15006;SDS011;7599;50.748;13.142;2023-03-14T02:08:48;2.58;;;1.90;;
15006;SDS011;7599;50.748;13.142;2023-03-14T02:11:51;4.05;;;2.85;;
15006;SDS011;7599;50.748;13.142;2023-03-14T02:14:54;2.47;;;2.13;;
15006;SDS011;7599;50.748;13.142;2023-03-14T02:17:57;2.92;;;2.65;;
15006;SDS011;7599;50.748;13.142;2023-03-14T02:21:04;2.25;;;1.92;;
15006;SDS011;7599;50.748;13.142;2023-03-14T02:24:13;2.25;;;2.05;;
15006;SDS011;7599;50.748;13.142;2023-03-14T02:27:27;2.33;;;2.00;;
15006;SDS011;7599;50.748;13.142;2023-03-14T02:30:30;2.65;;;2.35;;
15006;SDS011;7599;50.748;13.142;2023-03-14T02:33:34;2.63;;;2.17;;
15006;SDS011;7599;50.748;13.142;2023-03-14T02:36:39;3.10;;;2.28;;
15006;SDS011;7599;50.748;13.142;2023-03-14T02:39:43;1.42;;;0.90;;
15006;SDS011;7599;50.748;13.142;2023-03-14T02:42:48;3.17;;;2.53;;
15006;SDS011;7599;50.748;13.142;2023-03-14T02:45:52;2.47;;;2.00;;
15006;SDS011;7599;50.748;13.142;2023-03-14T02:52:00;2.78;;;2.17;;
15006;SDS011;7599;50.748;13.142;2023-03-14T02:55:02;3.15;;;2.25;;
15006;SDS011;7599;50.748;13.142;2023-03-14T02:58:06;2.33;;;2.13;;
15006;SDS011;7599;50.748;13.142;2023-03-14T03:01:09;2.42;;;2.20;;
15006;SDS011;7599;50.748;13.142;2023-03-14T03:04:12;3.47;;;3.17;;
15006;SDS011;7599;50.748;13.142;2023-03-14T03:07:14;3.13;;;2.45;;
15006;SDS011;7599;50.748;13.142;2023-03-14T03:10:17;2.80;;;2.40;;
15006;SDS011;7599;50.748;13.142;2023-03-14T03:13:21;1.05;;;0.80;;
15006;SDS011;7599;50.748;13.142;2023-03-14T03:16:23;2.38;;;2.17;;
15006;SDS011;7599;50.748;13.142;2023-03-14T03:19:26;2.90;;;2.33;;
15006;SDS011;7599;50.748;13.142;2023-03-14T03:22:29;2.28;;;2.00;;
15006;SDS011;7599;50.748;13.142;2023-03-14T03:25:31;2.63;;;2.22;;
15006;SDS011;7599;50.748;13.142;2023-03-14T03:28:35;2.58;;;2.38;;
15006;SDS011;7599;50.748;13.142;2023-03-14T03:31:38;2.45;;;1.88;;
15006;SDS011;7599;50.748;13.142;2023-03-14T03:34:41;2.55;;;2.13;;
15006;SDS011;7599;50.748;13.142;2023-03-14T03:37:44;2.63;;;2.25;;
15006;SDS011;7599;50.748;13.142;2023-03-14T03:40:46;2.40;;;2.20;;
15006;SDS011;7599;50.748;13.142;2023-03-14T03:43:50;2.70;;;2.40;;
15006;SDS011;7599;50.748;13.142;2023-03-14T03:46:52;2.33;;;2.13;;
15006;SDS011;7599;50.748;13.142;2023-03-14T03:49:55;2.80;;;2.55;;
15006;SDS011;7599;50.748;13.142;2023-03-14T03:52:58;2.78;;;2.40;;
15006;SDS011;7599;50.748;13.142;2023-03-14T03:56:00;0.93;;;0.70;;
15006;SDS011;7599;50.748;13.142;2023-03-14T03:59:04;2.58;;;1.98;;
15006;SDS011;7599;50.748;13.142;2023-03-14T04:02:07;2.22;;;2.03;;
15006;SDS011;7599;50.748;13.142;2023-03-14T04:05:10;2.60;;;2.40;;
15006;SDS011;7599;50.748;13.142;2023-03-14T04:08:13;2.53;;;2.20;;
15006;SDS011;7599;50.748;13.142;2023-03-14T04:11:15;1.77;;;1.63;;
15006;SDS011;7599;50.748;13.142;2023-03-14T04:14:20;2.65;;;2.45;;
15006;SDS011;7599;50.748;13.142;2023-03-14T04:17:22;3.53;;;2.20;;
15006;SDS011;7599;50.748;13.142;2023-03-14T04:20:26;2.13;;;1.85;;
15006;SDS011;7599;50.748;13.142;2023-03-14T04:23:29;2.80;;;2.20;;
15006;SDS011;7599;50.748;13.142;2023-03-14T04:26:32;2.85;;;2.40;;
15006;SDS011;7599;50.748;13.142;2023-03-14T04:29:36;2.75;;;2.53;;
15006;SDS011;7599;50.748;13.142;2023-03-14T04:32:39;2.67;;;2.30;;
15006;SDS011;7599;50.748;13.142;2023-03-14T04:35:41;2.55;;;2.22;;
15006;SDS011;7599;50.748;13.142;2023-03-14T04:38:44;2.45;;;2.25;;
15006;SDS011;7599;50.748;13.142;2023-03-14T04:41:47;1.38;;;0.50;;
15006;SDS011;7599;50.748;13.142;2023-03-14T04:44:51;2.45;;;1.80;;
15006;SDS011;7599;50.748;13.142;2023-03-14T04:47:54;2.13;;;1.92;;
15006;SDS011;7599;50.748;13.142;2023-03-14T04:50:56;1.80;;;1.70;;
15006;SDS011;7599;50.748;13.142;2023-03-14T04:53:59;2.30;;;2.10;;
15006;SDS011;7599;50.748;13.142;2023-03-14T04:57:02;2.80;;;2.17;;
15006;SDS011;7599;50.748;13.142;2023-03-14T05:00:07;2.47;;;2.17;;
15006;SDS011;7599;50.748;13.142;2023-03-14T05:03:11;2.13;;;1.92;;
15006;SDS011;7599;50.748;13.142;2023-03-14T05:06:14;3.05;;;2.40;;
15006;SDS011;7599;50.748;13.142;2023-03-14T05:09:16;2.15;;;1.73;;
15006;SDS011;7599;50.748;13.142;2023-03-14T05:12:19;3.25;;;2.30;;
15006;SDS011;7599;50.748;13.142;2023-03-14T05:18:27;3.58;;;2.95;;
15006;SDS011;7599;50.748;13.142;2023-03-14T05:21:30;2.72;;;1.83;;
15006;SDS011;7599;50.748;13.142;2023-03-14T05:24:32;3.15;;;2.25;;
15006;SDS011;7599;50.748;13.142;2023-03-14T05:27:35;2.45;;;2.25;;
15006;SDS011;7599;50.748;13.142;2023-03-14T05:30:39;3.00;;;1.98;;
15006;SDS011;7599;50.748;13.142;2023-03-14T05:33:42;3.53;;;2.47;;
15006;SDS011;7599;50.748;13.142;2023-03-14T05:36:44;3.08;;;2.55;;
15006;SDS011;7599;50.748;13.142;2023-03-14T05:39:47;3.65;;;1.95;;
15006;SDS011;7599;50.748;13.142;2023-03-14T05:42:50;4.13;;;2.15;;
15006;SDS011;7599;50.748;13.142;2023-03-14T05:45:54;2.85;;;2.03;;
15006;SDS011;7599;50.748;13.142;2023-03-14T05:48:57;2.80;;;2.25;;
15006;SDS011;7599;50.748;13.142;2023-03-14T05:52:00;3.92;;;2.75;;
15006;SDS011;7599;50.748;13.142;2023-03-14T05:55:04;3.90;;;1.80;;
15006;SDS011;7599;50.748;13.142;2023-03-14T05:58:08;3.92;;;2.17;;
15006;SDS011;7599;50.748;13.142;2023-03-14T06:01:11;2.88;;;2.13;;
15006;SDS011;7599;50.748;13.142;2023-03-14T06:04:14;3.67;;;1.85;;
15006;SDS011;7599;50.748;13.142;2023-03-14T06:07:17;3.13;;;2.00;;
15006;SDS011;7599;50.748;13.142;2023-03-14T06:10:20;4.03;;;2.90;;
15006;SDS011;7599;50.748;13.142;2023-03-14T06:13:22;4.35;;;2.38;;
15006;SDS011;7599;50.748;13.142;2023-03-14T06:16:28;3.13;;;2.15;;
15006;SDS011;7599;50.748;13.142;2023-03-14T06:19:30;4.07;;;2.25;;
15006;SDS011;7599;50.748;13.142;2023-03-14T06:22:34;2.97;;;2.53;;
15006;SDS011;7599;50.748;13.142;2023-03-14T06:25:37;2.60;;;1.92;;
15006;SDS011;7599;50.748;13.142;2023-03-14T06:28:40;3.75;;;2.40;;
15006;SDS011;7599;50.748;13.142;2023-03-14T06:31:44;4.80;;;2.25;;
15006;SDS011;7599;50.748;13.142;2023-03-14T06:34:47;4.00;;;2.42;;
15006;SDS011;7599;50.748;13.142;2023-03-14T06:37:49;3.53;;;2.17;;
15006;SDS011;7599;50.748;13.142;2023-03-14T06:40:52;4.63;;;2.00;;
15006;SDS011;7599;50.748;13.142;2023-03-14T06:43:55;4.75;;;2.28;;
15006;SDS011;7599;50.748;13.142;2023-03-14T06:46:59;4.60;;;2.25;;
15006;SDS011;7599;50.748;13.142;2023-03-14T06:50:01;6.75;;;2.13;;
15006;SDS011;7599;50.748;13.142;2023-03-14T06:53:05;5.22;;;2.17;;
15006;SDS011;7599;50.748;13.142;2023-03-14T06:56:08;2.88;;;1.95;;
15006;SDS011;7599;50.748;13.142;2023-03-14T06:59:11;4.40;;;2.85;;
15006;SDS011;7599;50.748;13.142;2023-03-14T07:02:15;4.28;;;2.83;;
15006;SDS011;7599;50.748;13.142;2023-03-14T07:08:20;3.75;;;2.22;;
15006;SDS011;7599;50.748;13.142;2023-03-14T07:11:22;3.17;;;1.70;;
15006;SDS011;7599;50.748;13.142;2023-03-14T07:14:25;4.25;;;2.40;;
15006;SDS011;7599;50.748;13.142;2023-03-14T07:17:30;4.65;;;2.45;;
15006;SDS011;7599;50.748;13.142;2023-03-14T07:20:32;4.00;;;2.17;;
15006;SDS011;7599;50.748;13.142;2023-03-14T07:23:35;3.22;;;2.17;;
15006;SDS011;7599;50.748;13.142;2023-03-14T07:26:37;4.95;;;2.35;;
15006;SDS011;7599;50.748;13.142;2023-03-14T07:29:40;3.70;;;2.40;;
15006;SDS011;7599;50.748;13.142;2023-03-14T07:32:44;4.07;;;2.60;;
15006;SDS011;7599;50.748;13.142;2023-03-14T07:35:47;3.72;;;2.40;;
15006;SDS011;7599;50.748;13.142;2023-03-14T07:38:50;5.10;;;2.63;;
15006;SDS011;7599;50.748;13.142;2023-03-14T07:41:53;3.25;;;2.42;;
15006;SDS011;7599;50.748;13.142;2023-03-14T07:44:56;5.63;;;2.55;;
15006;SDS011;7599;50.748;13.142;2023-03-14T07:48:00;2.70;;;2.03;;
15006;SDS011;7599;50.748;13.142;2023-03-14T07:51:03;3.13;;;1.30;;
15006;SDS011;7599;50.748;13.142;2023-03-14T07:54:06;5.28;;;2.40;;
15006;SDS011;7599;50.748;13.142;2023-03-14T07:57:08;3.50;;;2.03;;
15006;SDS011;7599;50.748;13.142;2023-03-14T08:00:12;3.80;;;2.75;;
15006;SDS011;7599;50.748;13.142;2023-03-14T08:03:17;4.57;;;2.47;;
15006;SDS011;7599;50.748;13.142;2023-03-14T08:06:20;2.78;;;2.47;;
15006;SDS011;7599;50.748;13.142;2023-03-14T08:09:23;3.03;;;2.10;;
15006;SDS011;7599;50.748;13.142;2023-03-14T08:12:25;3.40;;;2.05;;
15006;SDS011;7599;50.748;13.142;2023-03-14T08:15:28;3.78;;;2.47;;
15006;SDS011;7599;50.748;13.142;2023-03-14T08:18:34;4.03;;;2.47;;
15006;SDS011;7599;50.748;13.142;2023-03-14T08:21:37;3.67;;;2.30;;
15006;SDS011;7599;50.748;13.142;2023-03-14T08:24:39;2.95;;;1.85;;
15006;SDS011;7599;50.748;13.142;2023-03-14T08:27:42;3.38;;;1.05;;
15006;SDS011;7599;50.748;13.142;2023-03-14T08:30:45;3.08;;;2.10;;
15006;SDS011;7599;50.748;13.142;2023-03-14T08:33:50;6.10;;;2.75;;
15006;SDS011;7599;50.748;13.142;2023-03-14T08:36:54;3.65;;;2.20;;
15006;SDS011;7599;50.748;13.142;2023-03-14T08:39:58;2.72;;;2.38;;
15006;SDS011;7599;50.748;13.142;2023-03-14T08:43:04;3.83;;;2.53;;
15006;SDS011;7599;50.748;13.142;2023-03-14T08:46:09;4.85;;;2.08;;
15006;SDS011;7599;50.748;13.142;2023-03-14T08:49:13;4.15;;;2.80;;
15006;SDS011;7599;50.748;13.142;2023-03-14T08:52:16;3.20;;;1.73;;
15006;SDS011;7599;50.748;13.142;2023-03-14T08:55:19;3.30;;;1.95;;
15006;SDS011;7599;50.748;13.142;2023-03-14T08:58:22;4.00;;;2.25;;
15006;SDS011;7599;50.748;13.142;2023-03-14T09:01:25;3.20;;;2.42;;
15006;SDS011;7599;50.748;13.142;2023-03-14T09:04:29;5.63;;;2.63;;
15006;SDS011;7599;50.748;13.142;2023-03-14T09:10:58;3.05;;;2.13;;
15006;SDS011;7599;50.748;13.142;2023-03-14T09:14:05;3.63;;;2.70;;
15006;SDS011;7599;50.748;13.142;2023-03-14T09:17:32;2.88;;;2.35;;
15006;SDS011;7599;50.748;13.142;2023-03-14T09:25:06;3.45;;;2.42;;
15006;SDS011;7599;50.748;13.142;2023-03-14T09:28:14;2.08;;;0.75;;
15006;SDS011;7599;50.748;13.142;2023-03-14T09:31:20;4.18;;;2.50;;
15006;SDS011;7599;50.748;13.142;2023-03-14T09:34:23;4.80;;;2.58;;
15006;SDS011;7599;50.748;13.142;2023-03-14T09:37:28;3.42;;;2.35;;
15006;SDS011;7599;50.748;13.142;2023-03-14T09:40:33;4.45;;;2.42;;
15006;SDS011;7599;50.748;13.142;2023-03-14T09:43:37;4.20;;;2.13;;
15006;SDS011;7599;50.748;13.142;2023-03-14T09:46:42;3.00;;;1.95;;
15006;SDS011;7599;50.748;13.142;2023-03-14T09:49:48;3.97;;;2.38;;
15006;SDS011;7599;50.748;13.142;2023-03-14T09:52:52;1.98;;;0.80;;
15006;SDS011;7599;50.748;13.142;2023-03-14T09:56:02;3.30;;;2.42;;
15006;SDS011;7599;50.748;13.142;2023-03-14T09:59:05;3.85;;;1.00;;
15006;SDS011;7599;50.748;13.142;2023-03-14T10:02:16;5.00;;;2.38;;
15006;SDS011;7599;50.748;13.142;2023-03-14T10:05:21;3.95;;;3.05;;
15006;SDS011;7599;50.748;13.142;2023-03-14T10:08:25;3.70;;;2.08;;
15006;SDS011;7599;50.748;13.142;2023-03-14T10:11:30;3.30;;;0.80;;
15006;SDS011;7599;50.748;13.142;2023-03-14T10:14:33;5.80;;;3.05;;
15006;SDS011;7599;50.748;13.142;2023-03-14T10:17:40;3.42;;;2.00;;
15006;SDS011;7599;50.748;13.142;2023-03-14T10:20:45;3.10;;;2.05;;
15006;SDS011;7599;50.748;13.142;2023-03-14T10:23:49;3.15;;;2.20;;
15006;SDS011;7599;50.748;13.142;2023-03-14T10:26:53;4.35;;;2.38;;
15006;SDS011;7599;50.748;13.142;2023-03-14T10:29:57;3.35;;;2.75;;
15006;SDS011;7599;50.748;13.142;2023-03-14T10:33:07;4.93;;;2.50;;
15006;SDS011;7599;50.748;13.142;2023-03-14T10:36:16;4.53;;;2.22;;
15006;SDS011;7599;50.748;13.142;2023-03-14T10:39:23;4.45;;;2.17;;
15006;SDS011;7599;50.748;13.142;2023-03-14T10:42:30;3.47;;;2.53;;
15006;SDS011;7599;50.748;13.142;2023-03-14T10:45:36;2.50;;;1.88;;
15006;SDS011;7599;50.748;13.142;2023-03-14T10:48:41;5.05;;;2.50;;
15006;SDS011;7599;50.748;13.142;2023-03-14T10:51:45;3.92;;;2.67;;
15006;SDS011;7599;50.748;13.142;2023-03-14T10:54:48;4.57;;;2.38;;
15006;SDS011;7599;50.748;13.142;2023-03-14T10:57:53;2.63;;;2.05;;
15006;SDS011;7599;50.748;13.142;2023-03-14T11:01:00;3.55;;;2.10;;
15006;SDS011;7599;50.748;13.142;2023-03-14T11:04:15;4.22;;;1.95;;
15006;SDS011;7599;50.748;13.142;2023-03-14T11:07:28;4.40;;;2.20;;
15006;SDS011;7599;50.748;13.142;2023-03-14T11:10:35;2.65;;;2.10;;
15006;SDS011;7599;50.748;13.142;2023-03-14T11:13:45;4.03;;;2.35;;
15006;SDS011;7599;50.748;13.142;2023-03-14T11:16:58;2.90;;;1.92;;
15006;SDS011;7599;50.748;13.142;2023-03-14T11:20:12;4.90;;;2.58;;
15006;SDS011;7599;50.748;13.142;2023-03-14T11:23:30;3.53;;;2.33;;
15006;SDS011;7599;50.748;13.142;2023-03-14T11:26:41;4.28;;;2.22;;
15006;SDS011;7599;50.748;13.142;2023-03-14T11:29:53;3.05;;;1.65;;
15006;SDS011;7599;50.748;13.142;2023-03-14T11:32:59;3.30;;;2.60;;
15006;SDS011;7599;50.748;13.142;2023-03-14T11:39:12;3.65;;;2.50;;
15006;SDS011;7599;50.748;13.142;2023-03-14T11:42:17;4.25;;;2.10;;
15006;SDS011;7599;50.748;13.142;2023-03-14T11:45:22;3.40;;;2.47;;
15006;SDS011;7599;50.748;13.142;2023-03-14T11:48:34;2.35;;;2.00;;
15006;SDS011;7599;50.748;13.142;2023-03-14T11:51:41;3.65;;;2.72;;
15006;SDS011;7599;50.748;13.142;2023-03-14T11:54:48;5.50;;;2.13;;
15006;SDS011;7599;50.748;13.142;2023-03-14T11:57:56;3.90;;;2.92;;
15006;SDS011;7599;50.748;13.142;2023-03-14T12:01:05;4.53;;;2.38;;
15006;SDS011;7599;50.748;13.142;2023-03-14T12:04:13;2.95;;;2.35;;
15006;SDS011;7599;50.748;13.142;2023-03-14T12:07:23;3.80;;;2.22;;
15006;SDS011;7599;50.748;13.142;2023-03-14T12:10:35;2.25;;;1.70;;
15006;SDS011;7599;50.748;13.142;2023-03-14T12:13:40;3.15;;;2.08;;
15006;SDS011;7599;50.748;13.142;2023-03-14T12:16:52;4.43;;;2.20;;
15006;SDS011;7599;50.748;13.142;2023-03-14T12:23:09;4.38;;;2.28;;
15006;SDS011;7599;50.748;13.142;2023-03-14T12:26:16;3.83;;;2.05;;
15006;SDS011;7599;50.748;13.142;2023-03-14T12:29:19;3.60;;;2.25;;
15006;SDS011;7599;50.748;13.142;2023-03-14T12:32:24;2.83;;;2.08;;
15006;SDS011;7599;50.748;13.142;2023-03-14T12:35:35;4.93;;;2.70;;
15006;SDS011;7599;50.748;13.142;2023-03-14T12:38:51;3.03;;;2.17;;
15006;SDS011;7599;50.748;13.142;2023-03-14T12:42:03;2.33;;;2.10;;
15006;SDS011;7599;50.748;13.142;2023-03-14T12:45:14;1.42;;;1.13;;
15006;SDS011;7599;50.748;13.142;2023-03-14T12:48:26;3.75;;;3.38;;
15006;SDS011;7599;50.748;13.142;2023-03-14T12:51:29;3.72;;;2.35;;
15006;SDS011;7599;50.748;13.142;2023-03-14T12:54:38;3.80;;;1.73;;
15006;SDS011;7599;50.748;13.142;2023-03-14T12:57:50;2.65;;;2.17;;
15006;SDS011;7599;50.748;13.142;2023-03-14T13:01:00;2.53;;;1.98;;
15006;SDS011;7599;50.748;13.142;2023-03-14T13:04:08;3.33;;;2.40;;
15006;SDS011;7599;50.748;13.142;2023-03-14T13:07:20;3.90;;;2.53;;
15006;SDS011;7599;50.748;13.142;2023-03-14T13:10:38;4.15;;;2.33;;
15006;SDS011;7599;50.748;13.142;2023-03-14T13:13:45;2.70;;;2.00;;
15006;SDS011;7599;50.748;13.142;2023-03-14T13:16:50;3.20;;;2.30;;
15006;SDS011;7599;50.748;13.142;2023-03-14T13:19:55;2.65;;;2.45;;
15006;SDS011;7599;50.748;13.142;2023-03-14T13:22:59;2.05;;;1.75;;
15006;SDS011;7599;50.748;13.142;2023-03-14T13:26:02;3.10;;;2.10;;
15006;SDS011;7599;50.748;13.142;2023-03-14T13:29:08;2.53;;;1.98;;
15006;SDS011;7599;50.748;13.142;2023-03-14T13:32:17;0.95;;;0.60;;
15006;SDS011;7599;50.748;13.142;2023-03-14T13:35:25;2.63;;;1.63;;
15006;SDS011;7599;50.748;13.142;2023-03-14T13:38:32;1.40;;;0.90;;
15006;SDS011;7599;50.748;13.142;2023-03-14T13:41:37;2.70;;;1.92;;
15006;SDS011;7599;50.748;13.142;2023-03-14T13:44:40;3.65;;;2.78;;
15006;SDS011;7599;50.748;13.142;2023-03-14T13:47:43;3.85;;;2.50;;
15006;SDS011;7599;50.748;13.142;2023-03-14T13:50:50;3.10;;;2.42;;
15006;SDS011;7599;50.748;13.142;2023-03-14T13:53:55;3.28;;;2.70;;
15006;SDS011;7599;50.748;13.142;2023-03-14T13:56:59;2.78;;;2.10;;
15006;SDS011;7599;50.748;13.142;2023-03-14T14:00:04;3.22;;;2.10;;
15006;SDS011;7599;50.748;13.142;2023-03-14T14:03:11;3.63;;;2.17;;
15006;SDS011;7599;50.748;13.142;2023-03-14T14:06:19;3.28;;;2.38;;
15006;SDS011;7599;50.748;13.142;2023-03-14T14:09:28;3.25;;;2.50;;
15006;SDS011;7599;50.748;13.142;2023-03-14T14:12:38;3.72;;;2.42;;
15006;SDS011;7599;50.748;13.142;2023-03-14T14:15:44;2.30;;;2.10;;
15006;SDS011;7599;50.748;13.142;2023-03-14T14:18:50;3.97;;;2.42;;
15006;SDS011;7599;50.748;13.142;2023-03-14T14:21:56;3.88;;;2.38;;
15006;SDS011;7599;50.748;13.142;2023-03-14T14:24:59;4.22;;;2.60;;
15006;SDS011;7599;50.748;13.142;2023-03-14T14:31:18;2.75;;;1.92;;
15006;SDS011;7599;50.748;13.142;2023-03-14T14:34:23;3.03;;;2.35;;
15006;SDS011;7599;50.748;13.142;2023-03-14T14:37:29;2.42;;;1.75;;
15006;SDS011;7599;50.748;13.142;2023-03-14T14:40:34;2.45;;;1.92;;
15006;SDS011;7599;50.748;13.142;2023-03-14T14:43:36;3.10;;;2.40;;
15006;SDS011;7599;50.748;13.142;2023-03-14T14:46:42;3.17;;;2.20;;
15006;SDS011;7599;50.748;13.142;2023-03-14T14:49:46;3.47;;;2.35;;
15006;SDS011;7599;50.748;13.142;2023-03-14T14:52:55;2.38;;;1.75;;
15006;SDS011;7599;50.748;13.142;2023-03-14T14:56:03;3.72;;;2.50;;
15006;SDS011;7599;50.748;13.142;2023-03-14T14:59:18;2.58;;;2.17;;
15006;SDS011;7599;50.748;13.142;2023-03-14T15:02:27;3.45;;;2.38;;
15006;SDS011;7599;50.748;13.142;2023-03-14T15:05:32;3.13;;;2.38;;
15006;SDS011;7599;50.748;13.142;2023-03-14T15:08:39;2.67;;;2.03;;
15006;SDS011;7599;50.748;13.142;2023-03-14T15:11:42;2.75;;;1.70;;
15006;SDS011;7599;50.748;13.142;2023-03-14T15:14:45;2.33;;;1.90;;
15006;SDS011;7599;50.748;13.142;2023-03-14T15:17:47;2.40;;;2.10;;
15006;SDS011;7599;50.748;13.142;2023-03-14T15:20:50;2.72;;;2.25;;
15006;SDS011;7599;50.748;13.142;2023-03-14T15:23:55;4.28;;;1.95;;
15006;SDS011;7599;50.748;13.142;2023-03-14T15:26:59;5.45;;;2.90;;
15006;SDS011;7599;50.748;13.142;2023-03-14T15:30:03;3.00;;;1.63;;
15006;SDS011;7599;50.748;13.142;2023-03-14T15:33:06;4.40;;;2.47;;
15006;SDS011;7599;50.748;13.142;2023-03-14T15:36:15;3.33;;;3.03;;
15006;SDS011;7599;50.748;13.142;2023-03-14T15:39:22;2.47;;;1.63;;
15006;SDS011;7599;50.748;13.142;2023-03-14T15:42:25;2.83;;;2.05;;
15006;SDS011;7599;50.748;13.142;2023-03-14T15:45:28;3.25;;;2.22;;
15006;SDS011;7599;50.748;13.142;2023-03-14T15:48:31;2.38;;;2.10;;
15006;SDS011;7599;50.748;13.142;2023-03-14T15:51:34;2.42;;;2.13;;
15006;SDS011;7599;50.748;13.142;2023-03-14T15:54:37;3.05;;;2.38;;
15006;SDS011;7599;50.748;13.142;2023-03-14T15:57:40;3.88;;;2.38;;
15006;SDS011;7599;50.748;13.142;2023-03-14T16:00:43;3.15;;;2.45;;
15006;SDS011;7599;50.748;13.142;2023-03-14T16:03:46;3.10;;;2.20;;
15006;SDS011;7599;50.748;13.142;2023-03-14T16:06:54;3.85;;;1.70;;
15006;SDS011;7599;50.748;13.142;2023-03-14T16:09:58;3.67;;;2.60;;
15006;SDS011;7599;50.748;13.142;2023-03-14T16:13:01;2.25;;;1.75;;
15006;SDS011;7599;50.748;13.142;2023-03-14T16:16:05;4.03;;;1.95;;
15006;SDS011;7599;50.748;13.142;2023-03-14T16:19:08;2.25;;;2.05;;
15006;SDS011;7599;50.748;13.142;2023-03-14T16:22:11;2.80;;;2.30;;
15006;SDS011;7599;50.748;13.142;2023-03-14T16:25:15;1.75;;;1.63;;
15006;SDS011;7599;50.748;13.142;2023-03-14T16:28:19;2.53;;;2.22;;
15006;SDS011;7599;50.748;13.142;2023-03-14T16:31:22;3.83;;;2.65;;
15006;SDS011;7599;50.748;13.142;2023-03-14T16:34:26;1.50;;;1.27;;
15006;SDS011;7599;50.748;13.142;2023-03-14T16:37:28;3.03;;;2.45;;
15006;SDS011;7599;50.748;13.142;2023-03-14T16:40:32;3.65;;;1.70;;
15006;SDS011;7599;50.748;13.142;2023-03-14T16:43:35;7.82;;;2.35;;
15006;SDS011;7599;50.748;13.142;2023-03-14T16:46:38;9.77;;;2.28;;
15006;SDS011;7599;50.748;13.142;2023-03-14T16:49:42;11.05;;;3.03;;
15006;SDS011;7599;50.748;13.142;2023-03-14T16:52:45;7.43;;;2.25;;
15006;SDS011;7599;50.748;13.142;2023-03-14T16:55:51;9.13;;;2.40;;
15006;SDS011;7599;50.748;13.142;2023-03-14T16:58:54;8.68;;;2.50;;
15006;SDS011;7599;50.748;13.142;2023-03-14T17:01:56;8.57;;;1.90;;
15006;SDS011;7599;50.748;13.142;2023-03-14T17:04:59;10.00;;;2.17;;
15006;SDS011;7599;50.748;13.142;2023-03-14T17:08:01;15.10;;;3.08;;
15006;SDS011;7599;50.748;13.142;2023-03-14T17:11:06;13.70;;;3.05;;
15006;SDS011;7599;50.748;13.142;2023-03-14T17:14:09;7.47;;;2.05;;
15006;SDS011;7599;50.748;13.142;2023-03-14T17:17:12;12.20;;;2.25;;
15006;SDS011;7599;50.748;13.142;2023-03-14T17:20:15;4.68;;;2.33;;
15006;SDS011;7599;50.748;13.142;2023-03-14T17:23:18;6.32;;;2.13;;
15006;SDS011;7599;50.748;13.142;2023-03-14T17:26:23;6.53;;;2.38;;
15006;SDS011;7599;50.748;13.142;2023-03-14T17:29:26;4.00;;;3.05;;
15006;SDS011;7599;50.748;13.142;2023-03-14T17:32:29;3.97;;;1.80;;
15006;SDS011;7599;50.748;13.142;2023-03-14T17:35:32;5.82;;;2.25;;
15006;SDS011;7599;50.748;13.142;2023-03-14T17:38:34;6.85;;;2.55;;
15006;SDS011;7599;50.748;13.142;2023-03-14T17:41:39;3.60;;;2.53;;
15006;SDS011;7599;50.748;13.142;2023-03-14T17:44:42;4.03;;;1.75;;
15006;SDS011;7599;50.748;13.142;2023-03-14T17:47:46;3.78;;;2.05;;
15006;SDS011;7599;50.748;13.142;2023-03-14T17:50:48;3.67;;;2.10;;
15006;SDS011;7599;50.748;13.142;2023-03-14T17:53:53;3.38;;;2.45;;
15006;SDS011;7599;50.748;13.142;2023-03-14T17:56:57;4.18;;;2.28;;
15006;SDS011;7599;50.748;13.142;2023-03-14T17:59:59;1.98;;;1.65;;
15006;SDS011;7599;50.748;13.142;2023-03-14T18:03:02;3.70;;;2.08;;
15006;SDS011;7599;50.748;13.142;2023-03-14T18:06:06;3.78;;;1.73;;
15006;SDS011;7599;50.748;13.142;2023-03-14T18:09:10;3.28;;;2.28;;
15006;SDS011;7599;50.748;13.142;2023-03-14T18:12:14;4.57;;;2.53;;
15006;SDS011;7599;50.748;13.142;2023-03-14T18:15:17;3.38;;;2.25;;
15006;SDS011;7599;50.748;13.142;2023-03-14T18:18:19;2.90;;;2.10;;
15006;SDS011;7599;50.748;13.142;2023-03-14T18:21:22;2.72;;;1.88;;
15006;SDS011;7599;50.748;13.142;2023-03-14T18:24:25;2.95;;;1.88;;
15006;SDS011;7599;50.748;13.142;2023-03-14T18:27:30;2.72;;;2.05;;
15006;SDS011;7599;50.748;13.142;2023-03-14T18:30:33;4.13;;;2.58;;
15006;SDS011;7599;50.748;13.142;2023-03-14T18:33:35;3.80;;;2.47;;
15006;SDS011;7599;50.748;13.142;2023-03-14T18:36:40;3.92;;;3.45;;
15006;SDS011;7599;50.748;13.142;2023-03-14T18:39:43;2.17;;;0.88;;
15006;SDS011;7599;50.748;13.142;2023-03-14T18:42:47;3.33;;;2.28;;
15006;SDS011;7599;50.748;13.142;2023-03-14T18:45:49;3.00;;;2.15;;
15006;SDS011;7599;50.748;13.142;2023-03-14T18:48:52;2.95;;;2.13;;
15006;SDS011;7599;50.748;13.142;2023-03-14T18:51:57;3.53;;;2.17;;
15006;SDS011;7599;50.748;13.142;2023-03-14T18:54:59;2.35;;;1.63;;
15006;SDS011;7599;50.748;13.142;2023-03-14T18:58:04;3.50;;;2.45;;
15006;SDS011;7599;50.748;13.142;2023-03-14T19:01:07;4.80;;;2.90;;
15006;SDS011;7599;50.748;13.142;2023-03-14T19:04:11;3.97;;;2.28;;